sensor_id;sensor_type;location;lat;lon;timestamp;temperature;humidity
70676;DHT22;59069;52.242;20.900;2023-01-10T00:02:05;6.91;89.11
70676;DHT22;59069;52.242;20.900;2023-01-10T00:04:31;6.89;89.19
70676;DHT22;59069;52.242;20.900;2023-01-10T00:06:56;6.89;89.27
70676;DHT22;59069;52.242;20.900;2023-01-10T00:09:22;6.89;89.33
70676;DHT22;59069;52.242;20.900;2023-01-10T00:11:47;6.88;89.31
70676;DHT22;59069;52.242;20.900;2023-01-10T00:14:31;6.91;89.34
70676;DHT22;59069;52.242;20.900;2023-01-10T00:17:03;6.89;89.32
70676;DHT22;59069;52.242;20.900;2023-01-10T00:19:29;6.89;89.42
70676;DHT22;59069;52.242;20.900;2023-01-10T00:21:55;6.88;89.49
70676;DHT22;59069;52.242;20.900;2023-01-10T00:24:38;6.91;89.56
70676;DHT22;59069;52.242;20.900;2023-01-10T00:27:06;6.91;89.47
70676;DHT22;59069;52.242;20.900;2023-01-10T00:29:34;6.91;89.45
70676;DHT22;59069;52.242;20.900;2023-01-10T00:32:01;6.91;89.50
70676;DHT22;59069;52.242;20.900;2023-01-10T00:34:26;6.91;89.46
70676;DHT22;59069;52.242;20.900;2023-01-10T00:36:52;6.91;89.42
70676;DHT22;59069;52.242;20.900;2023-01-10T00:39:17;6.93;89.34
70676;DHT22;59069;52.242;20.900;2023-01-10T00:41:45;6.92;89.31
70676;DHT22;59069;52.242;20.900;2023-01-10T00:44:29;6.95;89.37
70676;DHT22;59069;52.242;20.900;2023-01-10T00:46:55;6.93;89.39
70676;DHT22;59069;52.242;20.900;2023-01-10T00:49:20;6.91;89.31
70676;DHT22;59069;52.242;20.900;2023-01-10T00:51:46;6.93;89.35
70676;DHT22;59069;52.242;20.900;2023-01-10T00:54:12;6.91;89.43
70676;DHT22;59069;52.242;20.900;2023-01-10T00:56:38;6.91;89.47
70676;DHT22;59069;52.242;20.900;2023-01-10T00:59:04;6.91;89.51
70676;DHT22;59069;52.242;20.900;2023-01-10T01:01:31;6.89;89.57
70676;DHT22;59069;52.242;20.900;2023-01-10T01:03:57;6.88;89.51
70676;DHT22;59069;52.242;20.900;2023-01-10T01:06:24;6.88;89.50
70676;DHT22;59069;52.242;20.900;2023-01-10T01:08:49;6.89;89.55
70676;DHT22;59069;52.242;20.900;2023-01-10T01:11:15;6.89;89.60
70676;DHT22;59069;52.242;20.900;2023-01-10T01:13:41;6.87;89.66
70676;DHT22;59069;52.242;20.900;2023-01-10T01:16:06;6.91;89.69
70676;DHT22;59069;52.242;20.900;2023-01-10T01:18:32;6.88;89.67
70676;DHT22;59069;52.242;20.900;2023-01-10T01:20:58;6.92;89.78
70676;DHT22;59069;52.242;20.900;2023-01-10T01:23:29;6.91;89.81
70676;DHT22;59069;52.242;20.900;2023-01-10T01:25:55;6.91;89.75
70676;DHT22;59069;52.242;20.900;2023-01-10T01:28:21;6.92;89.89
70676;DHT22;59069;52.242;20.900;2023-01-10T01:30:47;6.93;89.86
70676;DHT22;59069;52.242;20.900;2023-01-10T01:33:13;6.95;89.75
70676;DHT22;59069;52.242;20.900;2023-01-10T01:35:45;6.96;89.79
70676;DHT22;59069;52.242;20.900;2023-01-10T01:38:12;7.01;89.73
70676;DHT22;59069;52.242;20.900;2023-01-10T01:40:38;6.98;89.72
70676;DHT22;59069;52.242;20.900;2023-01-10T01:43:20;7.02;89.63
70676;DHT22;59069;52.242;20.900;2023-01-10T01:45:46;6.99;89.64
70676;DHT22;59069;52.242;20.900;2023-01-10T01:48:29;6.99;89.61
70676;DHT22;59069;52.242;20.900;2023-01-10T01:53:48;7.01;89.48
70676;DHT22;59069;52.242;20.900;2023-01-10T01:56:19;6.98;89.47
70676;DHT22;59069;52.242;20.900;2023-01-10T01:58:56;6.99;89.55
70676;DHT22;59069;52.242;20.900;2023-01-10T02:01:23;7.01;89.61
70676;DHT22;59069;52.242;20.900;2023-01-10T02:03:56;7.02;89.64
70676;DHT22;59069;52.242;20.900;2023-01-10T02:06:23;7.02;89.58
70676;DHT22;59069;52.242;20.900;2023-01-10T02:09:01;7.05;89.53
70676;DHT22;59069;52.242;20.900;2023-01-10T02:11:28;7.06;89.46
70676;DHT22;59069;52.242;20.900;2023-01-10T02:13:54;7.08;89.51
70676;DHT22;59069;52.242;20.900;2023-01-10T02:16:21;7.08;89.46
70676;DHT22;59069;52.242;20.900;2023-01-10T02:18:46;7.09;89.44
70676;DHT22;59069;52.242;20.900;2023-01-10T02:21:47;7.09;89.40
70676;DHT22;59069;52.242;20.900;2023-01-10T02:35:26;7.05;89.27
70676;DHT22;59069;52.242;20.900;2023-01-10T02:40:43;7.05;89.40
70676;DHT22;59069;52.242;20.900;2023-01-10T02:43:15;7.05;89.45
70676;DHT22;59069;52.242;20.900;2023-01-10T02:45:56;7.06;89.40
70676;DHT22;59069;52.242;20.900;2023-01-10T02:48:23;7.05;89.46
70676;DHT22;59069;52.242;20.900;2023-01-10T02:53:36;7.05;89.40
70676;DHT22;59069;52.242;20.900;2023-01-10T02:56:35;7.05;89.31
70676;DHT22;59069;52.242;20.900;2023-01-10T03:04:43;7.01;89.46
70676;DHT22;59069;52.242;20.900;2023-01-10T03:10:06;6.98;89.38
70676;DHT22;59069;52.242;20.900;2023-01-10T03:12:54;6.93;89.37
70676;DHT22;59069;52.242;20.900;2023-01-10T03:15:24;6.91;89.39
70676;DHT22;59069;52.242;20.900;2023-01-10T03:17:55;6.88;89.52
70676;DHT22;59069;52.242;20.900;2023-01-10T03:20:23;6.88;89.57
70676;DHT22;59069;52.242;20.900;2023-01-10T03:22:50;6.85;89.62
70676;DHT22;59069;52.242;20.900;2023-01-10T03:25:21;6.87;89.65
70676;DHT22;59069;52.242;20.900;2023-01-10T03:27:54;6.84;89.72
70676;DHT22;59069;52.242;20.900;2023-01-10T03:30:51;6.85;89.68
70676;DHT22;59069;52.242;20.900;2023-01-10T03:33:23;6.85;89.70
70676;DHT22;59069;52.242;20.900;2023-01-10T03:38:25;6.87;89.73
70676;DHT22;59069;52.242;20.900;2023-01-10T03:41:00;6.89;89.71
70676;DHT22;59069;52.242;20.900;2023-01-10T03:43:39;6.89;89.74
70676;DHT22;59069;52.242;20.900;2023-01-10T03:46:50;6.91;89.69
70676;DHT22;59069;52.242;20.900;2023-01-10T03:49:19;6.92;89.66
70676;DHT22;59069;52.242;20.900;2023-01-10T03:51:47;6.89;89.71
70676;DHT22;59069;52.242;20.900;2023-01-10T03:54:16;6.89;89.66
70676;DHT22;59069;52.242;20.900;2023-01-10T03:56:49;6.85;89.63
70676;DHT22;59069;52.242;20.900;2023-01-10T03:59:18;6.87;89.63
70676;DHT22;59069;52.242;20.900;2023-01-10T04:01:45;6.84;89.67
70676;DHT22;59069;52.242;20.900;2023-01-10T04:04:10;6.85;89.64
70676;DHT22;59069;52.242;20.900;2023-01-10T04:06:36;6.82;89.66
70676;DHT22;59069;52.242;20.900;2023-01-10T04:09:02;6.84;89.81
70676;DHT22;59069;52.242;20.900;2023-01-10T04:11:28;6.85;89.85
70676;DHT22;59069;52.242;20.900;2023-01-10T04:13:53;6.87;89.68
70676;DHT22;59069;52.242;20.900;2023-01-10T04:16:19;6.84;89.61
70676;DHT22;59069;52.242;20.900;2023-01-10T04:18:45;6.84;89.65
70676;DHT22;59069;52.242;20.900;2023-01-10T04:21:10;6.85;89.62
70676;DHT22;59069;52.242;20.900;2023-01-10T04:23:36;6.87;89.54
70676;DHT22;59069;52.242;20.900;2023-01-10T04:26:02;6.87;89.47
70676;DHT22;59069;52.242;20.900;2023-01-10T04:28:27;6.88;89.47
70676;DHT22;59069;52.242;20.900;2023-01-10T04:30:53;6.87;89.39
70676;DHT22;59069;52.242;20.900;2023-01-10T04:33:18;6.88;89.36
70676;DHT22;59069;52.242;20.900;2023-01-10T04:35:48;6.89;89.25
70676;DHT22;59069;52.242;20.900;2023-01-10T04:38:14;6.91;89.17
70676;DHT22;59069;52.242;20.900;2023-01-10T04:40:40;6.92;89.16
70676;DHT22;59069;52.242;20.900;2023-01-10T04:43:06;6.89;89.17
70676;DHT22;59069;52.242;20.900;2023-01-10T04:45:31;6.89;89.07
70676;DHT22;59069;52.242;20.900;2023-01-10T04:47:57;6.92;88.96
70676;DHT22;59069;52.242;20.900;2023-01-10T04:50:24;6.91;88.94
70676;DHT22;59069;52.242;20.900;2023-01-10T04:52:50;6.88;88.85
70676;DHT22;59069;52.242;20.900;2023-01-10T04:55:15;6.87;88.76
70676;DHT22;59069;52.242;20.900;2023-01-10T04:57:41;6.85;88.78
70676;DHT22;59069;52.242;20.900;2023-01-10T05:00:08;6.82;88.78
70676;DHT22;59069;52.242;20.900;2023-01-10T05:02:34;6.84;88.83
70676;DHT22;59069;52.242;20.900;2023-01-10T05:04:59;6.87;88.80
70676;DHT22;59069;52.242;20.900;2023-01-10T05:07:25;6.84;88.84
70676;DHT22;59069;52.242;20.900;2023-01-10T05:09:51;6.81;88.87
70676;DHT22;59069;52.242;20.900;2023-01-10T05:12:17;6.78;88.96
70676;DHT22;59069;52.242;20.900;2023-01-10T05:14:42;6.80;88.96
70676;DHT22;59069;52.242;20.900;2023-01-10T05:17:08;6.78;88.94
70676;DHT22;59069;52.242;20.900;2023-01-10T05:19:33;6.80;88.96
70676;DHT22;59069;52.242;20.900;2023-01-10T05:21:59;6.75;88.97
70676;DHT22;59069;52.242;20.900;2023-01-10T05:24:24;6.77;88.99
70676;DHT22;59069;52.242;20.900;2023-01-10T05:26:50;6.80;89.05
70676;DHT22;59069;52.242;20.900;2023-01-10T05:29:15;6.82;89.07
70676;DHT22;59069;52.242;20.900;2023-01-10T05:31:41;6.85;89.15
70676;DHT22;59069;52.242;20.900;2023-01-10T05:34:10;6.88;89.12
70676;DHT22;59069;52.242;20.900;2023-01-10T05:36:37;6.88;89.02
70676;DHT22;59069;52.242;20.900;2023-01-10T05:39:02;6.93;88.99
70676;DHT22;59069;52.242;20.900;2023-01-10T05:41:28;6.93;88.94
70676;DHT22;59069;52.242;20.900;2023-01-10T05:43:53;6.98;88.90
70676;DHT22;59069;52.242;20.900;2023-01-10T05:46:19;7.01;88.87
70676;DHT22;59069;52.242;20.900;2023-01-10T05:48:44;7.02;88.74
70676;DHT22;59069;52.242;20.900;2023-01-10T05:51:10;7.01;88.72
70676;DHT22;59069;52.242;20.900;2023-01-10T05:53:35;7.01;88.67
70676;DHT22;59069;52.242;20.900;2023-01-10T05:56:02;7.01;88.65
70676;DHT22;59069;52.242;20.900;2023-01-10T05:58:28;7.02;88.57
70676;DHT22;59069;52.242;20.900;2023-01-10T06:00:55;7.01;88.52
70676;DHT22;59069;52.242;20.900;2023-01-10T06:03:21;7.02;88.53
70676;DHT22;59069;52.242;20.900;2023-01-10T06:05:47;7.03;88.28
70676;DHT22;59069;52.242;20.900;2023-01-10T06:08:12;7.03;88.27
70676;DHT22;59069;52.242;20.900;2023-01-10T06:10:38;6.99;88.30
70676;DHT22;59069;52.242;20.900;2023-01-10T06:13:03;6.99;88.38
70676;DHT22;59069;52.242;20.900;2023-01-10T06:15:29;6.99;88.30
70676;DHT22;59069;52.242;20.900;2023-01-10T06:17:55;6.99;88.20
70676;DHT22;59069;52.242;20.900;2023-01-10T06:20:20;6.96;88.15
70676;DHT22;59069;52.242;20.900;2023-01-10T06:22:46;6.93;88.25
70676;DHT22;59069;52.242;20.900;2023-01-10T06:25:12;6.91;88.25
70676;DHT22;59069;52.242;20.900;2023-01-10T06:27:39;6.89;88.31
70676;DHT22;59069;52.242;20.900;2023-01-10T06:30:06;6.91;88.45
70676;DHT22;59069;52.242;20.900;2023-01-10T06:32:32;6.91;88.44
70676;DHT22;59069;52.242;20.900;2023-01-10T06:34:57;6.88;88.38
70676;DHT22;59069;52.242;20.900;2023-01-10T06:37:23;6.87;88.31
70676;DHT22;59069;52.242;20.900;2023-01-10T06:39:48;6.88;88.31
70676;DHT22;59069;52.242;20.900;2023-01-10T06:42:15;6.89;88.42
70676;DHT22;59069;52.242;20.900;2023-01-10T06:44:41;6.89;88.36
70676;DHT22;59069;52.242;20.900;2023-01-10T06:47:07;6.93;88.37
70676;DHT22;59069;52.242;20.900;2023-01-10T06:49:32;6.95;88.25
70676;DHT22;59069;52.242;20.900;2023-01-10T06:51:58;6.95;88.19
70676;DHT22;59069;52.242;20.900;2023-01-10T06:54:23;6.95;88.26
70676;DHT22;59069;52.242;20.900;2023-01-10T06:56:49;6.89;88.15
70676;DHT22;59069;52.242;20.900;2023-01-10T06:59:15;6.85;88.13
70676;DHT22;59069;52.242;20.900;2023-01-10T07:01:40;6.81;88.24
70676;DHT22;59069;52.242;20.900;2023-01-10T07:04:06;6.78;88.33
70676;DHT22;59069;52.242;20.900;2023-01-10T07:06:35;6.78;88.33
70676;DHT22;59069;52.242;20.900;2023-01-10T07:09:02;6.75;88.25
70676;DHT22;59069;52.242;20.900;2023-01-10T07:11:28;6.75;88.33
70676;DHT22;59069;52.242;20.900;2023-01-10T07:13:53;6.74;88.39
70676;DHT22;59069;52.242;20.900;2023-01-10T07:16:19;6.74;88.39
70676;DHT22;59069;52.242;20.900;2023-01-10T07:18:45;6.70;88.29
70676;DHT22;59069;52.242;20.900;2023-01-10T07:21:11;6.71;88.33
70676;DHT22;59069;52.242;20.900;2023-01-10T07:23:37;6.70;88.36
70676;DHT22;59069;52.242;20.900;2023-01-10T07:26:05;6.70;88.31
70676;DHT22;59069;52.242;20.900;2023-01-10T07:28:31;6.65;88.30
70676;DHT22;59069;52.242;20.900;2023-01-10T07:30:59;6.65;88.17
70676;DHT22;59069;52.242;20.900;2023-01-10T07:33:25;6.63;88.12
70676;DHT22;59069;52.242;20.900;2023-01-10T07:35:50;6.58;88.16
70676;DHT22;59069;52.242;20.900;2023-01-10T07:38:16;6.57;88.19
70676;DHT22;59069;52.242;20.900;2023-01-10T07:40:41;6.52;88.11
70676;DHT22;59069;52.242;20.900;2023-01-10T07:43:08;6.52;88.20
70676;DHT22;59069;52.242;20.900;2023-01-10T07:45:34;6.54;88.27
70676;DHT22;59069;52.242;20.900;2023-01-10T07:48:01;6.54;88.29
70676;DHT22;59069;52.242;20.900;2023-01-10T07:50:30;6.51;88.18
70676;DHT22;59069;52.242;20.900;2023-01-10T07:52:58;6.52;88.09
70676;DHT22;59069;52.242;20.900;2023-01-10T07:55:24;6.50;88.10
70676;DHT22;59069;52.242;20.900;2023-01-10T07:57:50;6.50;88.11
70676;DHT22;59069;52.242;20.900;2023-01-10T08:00:16;6.50;88.14
70676;DHT22;59069;52.242;20.900;2023-01-10T08:02:42;6.52;88.08
70676;DHT22;59069;52.242;20.900;2023-01-10T08:05:08;6.52;87.99
70676;DHT22;59069;52.242;20.900;2023-01-10T08:07:34;6.54;87.73
70676;DHT22;59069;52.242;20.900;2023-01-10T08:09:59;6.52;87.66
70676;DHT22;59069;52.242;20.900;2023-01-10T08:12:25;6.51;87.66
70676;DHT22;59069;52.242;20.900;2023-01-10T08:14:51;6.48;87.69
70676;DHT22;59069;52.242;20.900;2023-01-10T08:17:17;6.51;87.74
70676;DHT22;59069;52.242;20.900;2023-01-10T08:19:43;6.51;87.67
70676;DHT22;59069;52.242;20.900;2023-01-10T08:22:09;6.50;87.58
70676;DHT22;59069;52.242;20.900;2023-01-10T08:24:35;6.47;87.60
70676;DHT22;59069;52.242;20.900;2023-01-10T08:27:00;6.48;87.50
70676;DHT22;59069;52.242;20.900;2023-01-10T08:29:27;6.45;87.48
70676;DHT22;59069;52.242;20.900;2023-01-10T08:31:53;6.43;87.44
70676;DHT22;59069;52.242;20.900;2023-01-10T08:34:18;6.44;87.53
70676;DHT22;59069;52.242;20.900;2023-01-10T08:36:44;6.44;87.45
70676;DHT22;59069;52.242;20.900;2023-01-10T08:39:11;6.43;87.45
70676;DHT22;59069;52.242;20.900;2023-01-10T08:41:36;6.43;87.54
70676;DHT22;59069;52.242;20.900;2023-01-10T08:44:04;6.43;87.47
70676;DHT22;59069;52.242;20.900;2023-01-10T08:46:30;6.44;87.42
70676;DHT22;59069;52.242;20.900;2023-01-10T08:48:55;6.40;87.42
70676;DHT22;59069;52.242;20.900;2023-01-10T08:51:21;6.40;87.40
70676;DHT22;59069;52.242;20.900;2023-01-10T08:53:47;6.40;87.40
70676;DHT22;59069;52.242;20.900;2023-01-10T08:56:12;6.37;87.21
70676;DHT22;59069;52.242;20.900;2023-01-10T08:58:38;6.40;87.42
70676;DHT22;59069;52.242;20.900;2023-01-10T09:01:05;6.38;87.37
70676;DHT22;59069;52.242;20.900;2023-01-10T09:03:31;6.43;87.40
70676;DHT22;59069;52.242;20.900;2023-01-10T09:06:00;6.44;87.22
70676;DHT22;59069;52.242;20.900;2023-01-10T09:08:26;6.43;86.93
70676;DHT22;59069;52.242;20.900;2023-01-10T09:10:52;6.40;87.03
70676;DHT22;59069;52.242;20.900;2023-01-10T09:13:18;6.40;87.04
70676;DHT22;59069;52.242;20.900;2023-01-10T09:15:43;6.40;86.99
70676;DHT22;59069;52.242;20.900;2023-01-10T09:18:11;6.41;86.96
70676;DHT22;59069;52.242;20.900;2023-01-10T09:20:39;6.43;86.94
70676;DHT22;59069;52.242;20.900;2023-01-10T09:23:13;6.45;87.15
70676;DHT22;59069;52.242;20.900;2023-01-10T09:25:45;6.47;86.91
70676;DHT22;59069;52.242;20.900;2023-01-10T09:28:11;6.48;86.62
70676;DHT22;59069;52.242;20.900;2023-01-10T09:30:37;6.50;86.66
70676;DHT22;59069;52.242;20.900;2023-01-10T09:33:03;6.50;86.49
70676;DHT22;59069;52.242;20.900;2023-01-10T09:35:30;6.48;86.38
70676;DHT22;59069;52.242;20.900;2023-01-10T09:37:58;6.48;86.47
70676;DHT22;59069;52.242;20.900;2023-01-10T09:40:51;6.50;86.52
70676;DHT22;59069;52.242;20.900;2023-01-10T09:43:39;6.55;86.51
70676;DHT22;59069;52.242;20.900;2023-01-10T09:53:54;6.61;86.30
70676;DHT22;59069;52.242;20.900;2023-01-10T09:56:21;6.64;86.42
70676;DHT22;59069;52.242;20.900;2023-01-10T09:58:47;6.67;86.19
70676;DHT22;59069;52.242;20.900;2023-01-10T10:01:26;6.71;85.96
70676;DHT22;59069;52.242;20.900;2023-01-10T10:04:21;6.68;85.93
70676;DHT22;59069;52.242;20.900;2023-01-10T10:06:51;6.70;85.89
70676;DHT22;59069;52.242;20.900;2023-01-10T10:09:28;6.72;85.96
70676;DHT22;59069;52.242;20.900;2023-01-10T10:20:25;6.81;85.60
70676;DHT22;59069;52.242;20.900;2023-01-10T10:31:09;6.82;85.56
70676;DHT22;59069;52.242;20.900;2023-01-10T10:38:57;6.99;85.26
70676;DHT22;59069;52.242;20.900;2023-01-10T10:41:33;6.99;85.27
70676;DHT22;59069;52.242;20.900;2023-01-10T10:44:15;7.02;85.38
70676;DHT22;59069;52.242;20.900;2023-01-10T10:46:46;7.06;85.27
70676;DHT22;59069;52.242;20.900;2023-01-10T10:49:41;7.11;85.12
70676;DHT22;59069;52.242;20.900;2023-01-10T10:52:19;7.15;84.91
70676;DHT22;59069;52.242;20.900;2023-01-10T10:54:46;7.15;84.69
70676;DHT22;59069;52.242;20.900;2023-01-10T10:57:12;7.16;84.46
70676;DHT22;59069;52.242;20.900;2023-01-10T10:59:38;7.18;84.42
70676;DHT22;59069;52.242;20.900;2023-01-10T11:02:27;7.18;84.32
70676;DHT22;59069;52.242;20.900;2023-01-10T11:04:59;7.22;84.36
70676;DHT22;59069;52.242;20.900;2023-01-10T11:07:27;7.22;84.18
70676;DHT22;59069;52.242;20.900;2023-01-10T11:09:54;7.20;84.01
70676;DHT22;59069;52.242;20.900;2023-01-10T11:12:28;7.19;83.88
70676;DHT22;59069;52.242;20.900;2023-01-10T11:14:55;7.11;83.89
70676;DHT22;59069;52.242;20.900;2023-01-10T11:17:26;7.11;84.01
70676;DHT22;59069;52.242;20.900;2023-01-10T11:20:04;7.08;84.08
70676;DHT22;59069;52.242;20.900;2023-01-10T11:22:38;7.06;84.03
70676;DHT22;59069;52.242;20.900;2023-01-10T11:25:17;7.06;84.14
70676;DHT22;59069;52.242;20.900;2023-01-10T11:27:55;7.09;84.15
70676;DHT22;59069;52.242;20.900;2023-01-10T11:30:27;7.01;83.98
70676;DHT22;59069;52.242;20.900;2023-01-10T11:33:01;7.02;84.02
70676;DHT22;59069;52.242;20.900;2023-01-10T11:35:36;6.99;84.02
70676;DHT22;59069;52.242;20.900;2023-01-10T11:38:17;6.98;84.20
70676;DHT22;59069;52.242;20.900;2023-01-10T11:41:44;7.01;84.38
70676;DHT22;59069;52.242;20.900;2023-01-10T11:44:15;7.02;84.40
70676;DHT22;59069;52.242;20.900;2023-01-10T11:46:45;7.02;84.43
70676;DHT22;59069;52.242;20.900;2023-01-10T11:49:14;7.01;84.19
70676;DHT22;59069;52.242;20.900;2023-01-10T11:51:49;6.95;84.36
70676;DHT22;59069;52.242;20.900;2023-01-10T11:54:20;6.98;84.42
70676;DHT22;59069;52.242;20.900;2023-01-10T11:57:05;7.01;84.55
70676;DHT22;59069;52.242;20.900;2023-01-10T11:59:31;7.02;84.59
70676;DHT22;59069;52.242;20.900;2023-01-10T12:04:53;7.08;84.62
70676;DHT22;59069;52.242;20.900;2023-01-10T12:07:19;7.08;84.59
70676;DHT22;59069;52.242;20.900;2023-01-10T12:09:56;7.11;84.53
70676;DHT22;59069;52.242;20.900;2023-01-10T12:12:27;7.13;84.53
70676;DHT22;59069;52.242;20.900;2023-01-10T12:14:55;7.13;84.56
70676;DHT22;59069;52.242;20.900;2023-01-10T12:17:26;7.18;84.50
70676;DHT22;59069;52.242;20.900;2023-01-10T12:19:54;7.15;84.21
70676;DHT22;59069;52.242;20.900;2023-01-10T12:22:29;7.12;84.10
70676;DHT22;59069;52.242;20.900;2023-01-10T12:24:57;7.08;84.25
70676;DHT22;59069;52.242;20.900;2023-01-10T12:27:25;7.05;84.37
70676;DHT22;59069;52.242;20.900;2023-01-10T12:30:05;7.05;84.40
70676;DHT22;59069;52.242;20.900;2023-01-10T12:32:43;7.08;84.55
70676;DHT22;59069;52.242;20.900;2023-01-10T12:35:17;7.06;84.52
70676;DHT22;59069;52.242;20.900;2023-01-10T12:37:58;7.12;84.40
70676;DHT22;59069;52.242;20.900;2023-01-10T12:40:40;7.13;84.48
70676;DHT22;59069;52.242;20.900;2023-01-10T12:43:16;7.15;84.37
70676;DHT22;59069;52.242;20.900;2023-01-10T12:46:32;7.15;84.19
70676;DHT22;59069;52.242;20.900;2023-01-10T12:49:11;7.15;84.28
70676;DHT22;59069;52.242;20.900;2023-01-10T12:51:38;7.16;84.39
70676;DHT22;59069;52.242;20.900;2023-01-10T12:54:13;7.18;84.32
70676;DHT22;59069;52.242;20.900;2023-01-10T12:56:39;7.16;84.28
70676;DHT22;59069;52.242;20.900;2023-01-10T12:59:30;7.16;84.11
70676;DHT22;59069;52.242;20.900;2023-01-10T13:02:02;7.15;83.98
70676;DHT22;59069;52.242;20.900;2023-01-10T13:04:30;7.13;84.02
70676;DHT22;59069;52.242;20.900;2023-01-10T13:06:59;7.15;84.12
70676;DHT22;59069;52.242;20.900;2023-01-10T13:09:27;7.16;84.09
70676;DHT22;59069;52.242;20.900;2023-01-10T13:12:19;7.18;84.04
70676;DHT22;59069;52.242;20.900;2023-01-10T13:14:53;7.15;83.91
70676;DHT22;59069;52.242;20.900;2023-01-10T13:22:44;7.09;83.93
70676;DHT22;59069;52.242;20.900;2023-01-10T13:27:44;7.05;83.96
70676;DHT22;59069;52.242;20.900;2023-01-10T13:30:30;6.99;83.93
70676;DHT22;59069;52.242;20.900;2023-01-10T13:33:02;7.02;84.10
70676;DHT22;59069;52.242;20.900;2023-01-10T13:35:39;6.99;84.14
70676;DHT22;59069;52.242;20.900;2023-01-10T13:38:16;7.01;84.09
70676;DHT22;59069;52.242;20.900;2023-01-10T13:40:56;6.98;83.97
70676;DHT22;59069;52.242;20.900;2023-01-10T13:51:30;6.95;83.73
70676;DHT22;59069;52.242;20.900;2023-01-10T13:54:00;6.93;83.77
70676;DHT22;59069;52.242;20.900;2023-01-10T13:58:53;6.91;83.77
70676;DHT22;59069;52.242;20.900;2023-01-10T14:01:37;6.91;83.85
70676;DHT22;59069;52.242;20.900;2023-01-10T14:06:56;6.87;83.45
70676;DHT22;59069;52.242;20.900;2023-01-10T14:11:58;6.82;83.50
70676;DHT22;59069;52.242;20.900;2023-01-10T14:14:28;6.84;83.46
70676;DHT22;59069;52.242;20.900;2023-01-10T14:17:24;6.84;83.42
70676;DHT22;59069;52.242;20.900;2023-01-10T14:20:04;6.81;83.28
70676;DHT22;59069;52.242;20.900;2023-01-10T14:22:33;6.81;83.15
70676;DHT22;59069;52.242;20.900;2023-01-10T14:25:00;6.81;83.08
70676;DHT22;59069;52.242;20.900;2023-01-10T14:27:42;6.81;83.04
70676;DHT22;59069;52.242;20.900;2023-01-10T14:30:15;6.80;82.99
70676;DHT22;59069;52.242;20.900;2023-01-10T14:32:41;6.77;83.03
70676;DHT22;59069;52.242;20.900;2023-01-10T14:35:14;6.72;82.95
70676;DHT22;59069;52.242;20.900;2023-01-10T14:37:44;6.74;82.99
70676;DHT22;59069;52.242;20.900;2023-01-10T14:43:10;6.67;82.98
70676;DHT22;59069;52.242;20.900;2023-01-10T14:48:38;6.61;83.27
70676;DHT22;59069;52.242;20.900;2023-01-10T14:51:33;6.61;83.29
70676;DHT22;59069;52.242;20.900;2023-01-10T14:54:11;6.61;83.35
70676;DHT22;59069;52.242;20.900;2023-01-10T14:56:41;6.60;83.42
70676;DHT22;59069;52.242;20.900;2023-01-10T14:59:29;6.55;83.34
70676;DHT22;59069;52.242;20.900;2023-01-10T15:01:57;6.50;83.40
70676;DHT22;59069;52.242;20.900;2023-01-10T15:04:26;6.45;83.38
70676;DHT22;59069;52.242;20.900;2023-01-10T15:06:56;6.45;83.58
70676;DHT22;59069;52.242;20.900;2023-01-10T15:09:23;6.41;83.55
70676;DHT22;59069;52.242;20.900;2023-01-10T15:11:50;6.38;83.55
70676;DHT22;59069;52.242;20.900;2023-01-10T15:14:18;6.31;83.57
70676;DHT22;59069;52.242;20.900;2023-01-10T15:16:45;6.31;83.67
70676;DHT22;59069;52.242;20.900;2023-01-10T15:19:15;6.24;83.70
70676;DHT22;59069;52.242;20.900;2023-01-10T15:21:44;6.21;83.85
70676;DHT22;59069;52.242;20.900;2023-01-10T15:24:32;6.21;83.92
70676;DHT22;59069;52.242;20.900;2023-01-10T15:27:00;6.20;83.99
70676;DHT22;59069;52.242;20.900;2023-01-10T15:29:27;6.20;84.09
70676;DHT22;59069;52.242;20.900;2023-01-10T15:31:54;6.20;84.03
70676;DHT22;59069;52.242;20.900;2023-01-10T15:34:25;6.20;84.03
70676;DHT22;59069;52.242;20.900;2023-01-10T15:37:00;6.12;84.05
70676;DHT22;59069;52.242;20.900;2023-01-10T15:39:34;6.09;84.10
70676;DHT22;59069;52.242;20.900;2023-01-10T15:42:05;6.09;84.10
70676;DHT22;59069;52.242;20.900;2023-01-10T15:44:46;6.02;84.15
70676;DHT22;59069;52.242;20.900;2023-01-10T15:53:03;5.88;84.41
70676;DHT22;59069;52.242;20.900;2023-01-10T15:55:39;5.86;84.50
70676;DHT22;59069;52.242;20.900;2023-01-10T16:00:44;5.80;84.64
70676;DHT22;59069;52.242;20.900;2023-01-10T16:03:48;5.79;84.72
70676;DHT22;59069;52.242;20.900;2023-01-10T16:06:28;5.78;84.69
70676;DHT22;59069;52.242;20.900;2023-01-10T16:08:56;5.73;84.75
70676;DHT22;59069;52.242;20.900;2023-01-10T16:11:50;5.69;84.84
70676;DHT22;59069;52.242;20.900;2023-01-10T16:14:35;5.68;84.93
70676;DHT22;59069;52.242;20.900;2023-01-10T16:17:03;5.68;84.94
70676;DHT22;59069;52.242;20.900;2023-01-10T16:19:29;5.68;84.98
70676;DHT22;59069;52.242;20.900;2023-01-10T16:21:56;5.61;85.02
70676;DHT22;59069;52.242;20.900;2023-01-10T16:24:25;5.62;85.05
70676;DHT22;59069;52.242;20.900;2023-01-10T16:26:51;5.61;85.06
70676;DHT22;59069;52.242;20.900;2023-01-10T16:29:17;5.59;85.19
70676;DHT22;59069;52.242;20.900;2023-01-10T16:31:45;5.52;85.21
70676;DHT22;59069;52.242;20.900;2023-01-10T16:34:11;5.52;85.30
70676;DHT22;59069;52.242;20.900;2023-01-10T16:36:38;5.49;85.33
70676;DHT22;59069;52.242;20.900;2023-01-10T16:39:17;5.45;85.35
70676;DHT22;59069;52.242;20.900;2023-01-10T16:41:43;5.47;85.39
70676;DHT22;59069;52.242;20.900;2023-01-10T16:44:28;5.44;85.35
70676;DHT22;59069;52.242;20.900;2023-01-10T16:46:55;5.41;85.38
70676;DHT22;59069;52.242;20.900;2023-01-10T16:49:20;5.39;85.44
70676;DHT22;59069;52.242;20.900;2023-01-10T16:51:46;5.38;85.44
70676;DHT22;59069;52.242;20.900;2023-01-10T16:54:17;5.34;85.39
70676;DHT22;59069;52.242;20.900;2023-01-10T16:56:45;5.28;85.40
70676;DHT22;59069;52.242;20.900;2023-01-10T16:59:12;5.28;85.42
70676;DHT22;59069;52.242;20.900;2023-01-10T17:01:48;5.27;85.47
70676;DHT22;59069;52.242;20.900;2023-01-10T17:04:21;5.26;85.56
70676;DHT22;59069;52.242;20.900;2023-01-10T17:06:47;5.23;85.53
70676;DHT22;59069;52.242;20.900;2023-01-10T17:09:22;5.20;85.52
70676;DHT22;59069;52.242;20.900;2023-01-10T17:11:52;5.17;85.56
70676;DHT22;59069;52.242;20.900;2023-01-10T17:14:21;5.20;85.52
70676;DHT22;59069;52.242;20.900;2023-01-10T17:16:46;5.16;85.58
70676;DHT22;59069;52.242;20.900;2023-01-10T17:19:12;5.11;85.55
70676;DHT22;59069;52.242;20.900;2023-01-10T17:21:38;5.07;85.65
70676;DHT22;59069;52.242;20.900;2023-01-10T17:24:04;5.08;85.68
70676;DHT22;59069;52.242;20.900;2023-01-10T17:26:29;5.08;85.83
70676;DHT22;59069;52.242;20.900;2023-01-10T17:28:55;5.07;85.92
70676;DHT22;59069;52.242;20.900;2023-01-10T17:31:20;5.07;86.01